sensor_id;sensor_type;location;lat;lon;timestamp;P1;P2;P0
46381;PMS5003;66809;52.974;-2.514;2023-01-10T00:01:50;1.2666666666666666;0.8666666666666667;
46381;PMS5003;66809;52.974;-2.514;2023-01-10T00:03:50;1.25;0.8666666666666667;
46381;PMS5003;66809;52.974;-2.514;2023-01-10T00:05:49;1.2;0.8333333333333334;
46381;PMS5003;66809;52.974;-2.514;2023-01-10T00:07:50;1.2166666666666666;0.8666666666666667;
46381;PMS5003;66809;52.974;-2.514;2023-01-10T00:09:49;1.2833333333333334;0.9;
46381;PMS5003;66809;52.974;-2.514;2023-01-10T00:11:49;1.2333333333333334;0.8666666666666667;
46381;PMS5003;66809;52.974;-2.514;2023-01-10T00:13:51;1.2;0.8333333333333334;
46381;PMS5003;66809;52.974;-2.514;2023-01-10T00:15:49;1.15;0.8;
46381;PMS5003;66809;52.974;-2.514;2023-01-10T00:17:50;1.1666666666666667;0.8166666666666667;
46381;PMS5003;66809;52.974;-2.514;2023-01-10T00:19:50;1.2;0.8333333333333334;
46381;PMS5003;66809;52.974;-2.514;2023-01-10T00:21:49;1.2333333333333334;0.8666666666666667;
46381;PMS5003;66809;52.974;-2.514;2023-01-10T00:23:49;1.2166666666666666;0.85;
46381;PMS5003;66809;52.974;-2.514;2023-01-10T00:25:50;1.25;0.85;
46381;PMS5003;66809;52.974;-2.514;2023-01-10T00:27:51;1.2833333333333334;0.8833333333333333;
46381;PMS5003;66809;52.974;-2.514;2023-01-10T00:29:49;1.2833333333333334;0.8666666666666667;
46381;PMS5003;66809;52.974;-2.514;2023-01-10T00:31:50;1.2333333333333334;0.8333333333333334;
46381;PMS5003;66809;52.974;-2.514;2023-01-10T00:33:50;1.2333333333333334;0.8166666666666667;
46381;PMS5003;66809;52.974;-2.514;2023-01-10T00:35:49;1.2333333333333334;0.8166666666666667;
46381;PMS5003;66809;52.974;-2.514;2023-01-10T00:37:49;1.1833333333333333;0.7833333333333333;
46381;PMS5003;66809;52.974;-2.514;2023-01-10T00:39:50;1.2;0.7833333333333333;
46381;PMS5003;66809;52.974;-2.514;2023-01-10T00:41:49;1.2166666666666666;0.8166666666666667;
46381;PMS5003;66809;52.974;-2.514;2023-01-10T00:43:49;1.2;0.8166666666666667;
46381;PMS5003;66809;52.974;-2.514;2023-01-10T00:45:49;1.2666666666666666;0.8666666666666667;
46381;PMS5003;66809;52.974;-2.514;2023-01-10T00:47:50;1.25;0.8666666666666667;
46381;PMS5003;66809;52.974;-2.514;2023-01-10T00:49:50;1.2666666666666666;0.9;
46381;PMS5003;66809;52.974;-2.514;2023-01-10T00:51:49;1.2666666666666666;0.9;
46381;PMS5003;66809;52.974;-2.514;2023-01-10T00:53:49;1.2666666666666666;0.9333333333333333;
46381;PMS5003;66809;52.974;-2.514;2023-01-10T00:55:50;1.2;0.9166666666666666;
46381;PMS5003;66809;52.974;-2.514;2023-01-10T00:57:50;1.2166666666666666;0.9333333333333333;
46381;PMS5003;66809;52.974;-2.514;2023-01-10T00:59:49;1.2166666666666666;0.9166666666666666;
46381;PMS5003;66809;52.974;-2.514;2023-01-10T01:01:50;1.2166666666666666;0.9;
46381;PMS5003;66809;52.974;-2.514;2023-01-10T01:03:50;1.1666666666666667;0.8833333333333333;
46381;PMS5003;66809;52.974;-2.514;2023-01-10T01:05:49;1.1833333333333333;0.8833333333333333;
46381;PMS5003;66809;52.974;-2.514;2023-01-10T01:07:49;1.1333333333333333;0.8333333333333334;
46381;PMS5003;66809;52.974;-2.514;2023-01-10T01:09:50;1.1;0.8333333333333334;
46381;PMS5003;66809;52.974;-2.514;2023-01-10T01:11:49;1.1;0.8333333333333334;
46381;PMS5003;66809;52.974;-2.514;2023-01-10T01:13:49;1.1;0.8333333333333334;
46381;PMS5003;66809;52.974;-2.514;2023-01-10T01:15:49;1.1166666666666667;0.85;
46381;PMS5003;66809;52.974;-2.514;2023-01-10T01:17:50;1.1333333333333333;0.85;
46381;PMS5003;66809;52.974;-2.514;2023-01-10T01:19:49;1.1;0.8333333333333334;
46381;PMS5003;66809;52.974;-2.514;2023-01-10T01:21:49;1.0833333333333333;0.8;
46381;PMS5003;66809;52.974;-2.514;2023-01-10T01:23:50;1.0833333333333333;0.8;
46381;PMS5003;66809;52.974;-2.514;2023-01-10T01:25:50;1.1166666666666667;0.8166666666666667;
46381;PMS5003;66809;52.974;-2.514;2023-01-10T01:27:50;1.15;0.8333333333333334;
46381;PMS5003;66809;52.974;-2.514;2023-01-10T01:29:50;1.1666666666666667;0.85;
46381;PMS5003;66809;52.974;-2.514;2023-01-10T01:31:49;1.2;0.8833333333333333;
46381;PMS5003;66809;52.974;-2.514;2023-01-10T01:33:49;1.25;0.9166666666666666;
46381;PMS5003;66809;52.974;-2.514;2023-01-10T01:35:50;1.2833333333333334;0.95;
46381;PMS5003;66809;52.974;-2.514;2023-01-10T01:37:50;1.3;0.95;
46381;PMS5003;66809;52.974;-2.514;2023-01-10T01:39:49;1.3333333333333333;0.9666666666666667;
46381;PMS5003;66809;52.974;-2.514;2023-01-10T01:41:49;1.3166666666666667;0.9666666666666667;
46381;PMS5003;66809;52.974;-2.514;2023-01-10T01:43:58;1.35;0.95;
46381;PMS5003;66809;52.974;-2.514;2023-01-10T01:45:50;1.2666666666666666;0.8833333333333333;
46381;PMS5003;66809;52.974;-2.514;2023-01-10T01:47:51;1.3166666666666667;0.8833333333333333;
46381;PMS5003;66809;52.974;-2.514;2023-01-10T01:49:49;1.3;0.8833333333333333;
46381;PMS5003;66809;52.974;-2.514;2023-01-10T01:51:50;1.3;0.8666666666666667;
46381;PMS5003;66809;52.974;-2.514;2023-01-10T01:53:51;1.3333333333333333;0.85;
46381;PMS5003;66809;52.974;-2.514;2023-01-10T01:55:50;1.35;0.8666666666666667;
46381;PMS5003;66809;52.974;-2.514;2023-01-10T01:57:50;1.35;0.8666666666666667;
46381;PMS5003;66809;52.974;-2.514;2023-01-10T01:59:51;1.3333333333333333;0.8666666666666667;
46381;PMS5003;66809;52.974;-2.514;2023-01-10T02:01:56;1.3833333333333333;0.9;
46381;PMS5003;66809;52.974;-2.514;2023-01-10T02:03:50;1.4166666666666667;0.9;
46381;PMS5003;66809;52.974;-2.514;2023-01-10T02:05:50;1.3833333333333333;0.9;
46381;PMS5003;66809;52.974;-2.514;2023-01-10T02:07:51;1.3666666666666667;0.8833333333333333;
46381;PMS5003;66809;52.974;-2.514;2023-01-10T02:09:50;1.4;0.9;
46381;PMS5003;66809;52.974;-2.514;2023-01-10T02:11:49;1.4333333333333333;0.9166666666666666;
46381;PMS5003;66809;52.974;-2.514;2023-01-10T02:13:49;1.4333333333333333;0.9166666666666666;
46381;PMS5003;66809;52.974;-2.514;2023-01-10T02:15:50;1.4333333333333333;0.9166666666666666;
46381;PMS5003;66809;52.974;-2.514;2023-01-10T02:17:50;1.45;0.9333333333333333;
46381;PMS5003;66809;52.974;-2.514;2023-01-10T02:19:50;1.5;0.95;
46381;PMS5003;66809;52.974;-2.514;2023-01-10T02:24:44;0.5;0.5;
46381;PMS5003;66809;52.974;-2.514;2023-01-10T02:26:47;0.625;0.5;
46381;PMS5003;66809;52.974;-2.514;2023-01-10T02:28:45;0.8333333333333334;0.6666666666666666;
46381;PMS5003;66809;52.974;-2.514;2023-01-10T02:33:29;0.2857142857142857;0.2857142857142857;
46381;PMS5003;66809;52.974;-2.514;2023-01-10T02:35:36;0.4375;0.4375;
46381;PMS5003;66809;52.974;-2.514;2023-01-10T02:38:24;0.5;0.35714285714285715;
46381;PMS5003;66809;52.974;-2.514;2023-01-10T02:40:23;0.625;0.375;
46381;PMS5003;66809;52.974;-2.514;2023-01-10T02:42:22;0.6666666666666666;0.4444444444444444;
46381;PMS5003;66809;52.974;-2.514;2023-01-10T02:44:23;0.7;0.5;
46381;PMS5003;66809;52.974;-2.514;2023-01-10T02:46:23;0.8181818181818182;0.5454545454545454;
46381;PMS5003;66809;52.974;-2.514;2023-01-10T02:48:21;0.875;0.625;
46381;PMS5003;66809;52.974;-2.514;2023-01-10T02:50:27;0.8846153846153846;0.6153846153846154;
46381;PMS5003;66809;52.974;-2.514;2023-01-10T02:52:22;0.9285714285714286;0.6428571428571429;
46381;PMS5003;66809;52.974;-2.514;2023-01-10T02:54:22;0.9666666666666667;0.7;
46381;PMS5003;66809;52.974;-2.514;2023-01-10T02:57:02;1.03125;0.75;
46381;PMS5003;66809;52.974;-2.514;2023-01-10T02:58:23;1.0588235294117647;0.7647058823529411;
46381;PMS5003;66809;52.974;-2.514;2023-01-10T03:00:26;1.0555555555555556;0.7777777777777778;
46381;PMS5003;66809;52.974;-2.514;2023-01-10T03:02:23;1.0263157894736843;0.7631578947368421;
46381;PMS5003;66809;52.974;-2.514;2023-01-10T03:04:23;1.025;0.75;
46381;PMS5003;66809;52.974;-2.514;2023-01-10T03:06:22;1.0238095238095237;0.7380952380952381;
46381;PMS5003;66809;52.974;-2.514;2023-01-10T03:08:25;1.0454545454545454;0.7272727272727273;
46381;PMS5003;66809;52.974;-2.514;2023-01-10T03:10:22;1.0434782608695652;0.717391304347826;
46381;PMS5003;66809;52.974;-2.514;2023-01-10T03:12:23;1.0208333333333333;0.6875;
46381;PMS5003;66809;52.974;-2.514;2023-01-10T03:14:22;1.02;0.66;
46381;PMS5003;66809;52.974;-2.514;2023-01-10T03:16:22;1.0192307692307692;0.6538461538461539;
46381;PMS5003;66809;52.974;-2.514;2023-01-10T03:18:22;1.037037037037037;0.6481481481481481;
46381;PMS5003;66809;52.974;-2.514;2023-01-10T03:20:21;1.0535714285714286;0.6607142857142857;
46381;PMS5003;66809;52.974;-2.514;2023-01-10T03:22:21;1.0862068965517242;0.6724137931034483;
46381;PMS5003;66809;52.974;-2.514;2023-01-10T03:24:28;1.15;0.6833333333333333;
46381;PMS5003;66809;52.974;-2.514;2023-01-10T03:26:24;1.1666666666666667;0.7;
46381;PMS5003;66809;52.974;-2.514;2023-01-10T03:28:23;1.2;0.7333333333333333;
46381;PMS5003;66809;52.974;-2.514;2023-01-10T03:30:25;1.2166666666666666;0.75;
46381;PMS5003;66809;52.974;-2.514;2023-01-10T03:32:23;1.25;0.7833333333333333;
46381;PMS5003;66809;52.974;-2.514;2023-01-10T03:34:21;1.25;0.7666666666666667;
46381;PMS5003;66809;52.974;-2.514;2023-01-10T03:36:25;1.25;0.7333333333333333;
46381;PMS5003;66809;52.974;-2.514;2023-01-10T03:38:23;1.2666666666666666;0.75;
46381;PMS5003;66809;52.974;-2.514;2023-01-10T03:40:22;1.2833333333333334;0.7833333333333333;
46381;PMS5003;66809;52.974;-2.514;2023-01-10T03:42:22;1.3166666666666667;0.8166666666666667;
46381;PMS5003;66809;52.974;-2.514;2023-01-10T03:44:23;1.3;0.8;
46381;PMS5003;66809;52.974;-2.514;2023-01-10T03:46:29;1.3;0.8;
46381;PMS5003;66809;52.974;-2.514;2023-01-10T03:48:21;1.2666666666666666;0.75;
46381;PMS5003;66809;52.974;-2.514;2023-01-10T03:50:21;1.2833333333333334;0.7666666666666667;
46381;PMS5003;66809;52.974;-2.514;2023-01-10T03:52:21;1.2666666666666666;0.7666666666666667;
46381;PMS5003;66809;52.974;-2.514;2023-01-10T03:54:22;1.2333333333333334;0.7333333333333333;
46381;PMS5003;66809;52.974;-2.514;2023-01-10T03:56:21;1.2333333333333334;0.7333333333333333;
46381;PMS5003;66809;52.974;-2.514;2023-01-10T03:58:21;1.2333333333333334;0.7166666666666667;
46381;PMS5003;66809;52.974;-2.514;2023-01-10T04:00:21;1.2666666666666666;0.7166666666666667;
46381;PMS5003;66809;52.974;-2.514;2023-01-10T04:02:21;1.2666666666666666;0.7166666666666667;
46381;PMS5003;66809;52.974;-2.514;2023-01-10T04:04:21;1.2833333333333334;0.7333333333333333;
46381;PMS5003;66809;52.974;-2.514;2023-01-10T04:06:21;1.2666666666666666;0.7166666666666667;
46381;PMS5003;66809;52.974;-2.514;2023-01-10T04:08:21;1.2333333333333334;0.7166666666666667;
46381;PMS5003;66809;52.974;-2.514;2023-01-10T04:10:21;1.25;0.75;
46381;PMS5003;66809;52.974;-2.514;2023-01-10T04:12:22;1.2833333333333334;0.8;
46381;PMS5003;66809;52.974;-2.514;2023-01-10T04:14:21;1.35;0.85;
46381;PMS5003;66809;52.974;-2.514;2023-01-10T04:16:28;1.3833333333333333;0.8833333333333333;
46381;PMS5003;66809;52.974;-2.514;2023-01-10T04:18:21;1.4;0.9;
46381;PMS5003;66809;52.974;-2.514;2023-01-10T04:20:22;1.3833333333333333;0.8833333333333333;
46381;PMS5003;66809;52.974;-2.514;2023-01-10T04:22:21;1.4333333333333333;0.8833333333333333;
46381;PMS5003;66809;52.974;-2.514;2023-01-10T04:24:21;1.4166666666666667;0.8666666666666667;
46381;PMS5003;66809;52.974;-2.514;2023-01-10T04:26:22;1.4166666666666667;0.8666666666666667;
46381;PMS5003;66809;52.974;-2.514;2023-01-10T04:28:27;1.4166666666666667;0.8666666666666667;
46381;PMS5003;66809;52.974;-2.514;2023-01-10T04:30:21;1.45;0.8833333333333333;
46381;PMS5003;66809;52.974;-2.514;2023-01-10T04:32:22;1.45;0.8833333333333333;
46381;PMS5003;66809;52.974;-2.514;2023-01-10T04:34:21;1.4666666666666666;0.9166666666666666;
46381;PMS5003;66809;52.974;-2.514;2023-01-10T04:36:21;1.4333333333333333;0.9166666666666666;
46381;PMS5003;66809;52.974;-2.514;2023-01-10T04:38:21;1.45;0.9166666666666666;
46381;PMS5003;66809;52.974;-2.514;2023-01-10T04:40:21;1.45;0.9166666666666666;
46381;PMS5003;66809;52.974;-2.514;2023-01-10T04:42:27;1.4166666666666667;0.8833333333333333;
46381;PMS5003;66809;52.974;-2.514;2023-01-10T04:44:21;1.4333333333333333;0.8666666666666667;
46381;PMS5003;66809;52.974;-2.514;2023-01-10T04:46:22;1.4166666666666667;0.85;
46381;PMS5003;66809;52.974;-2.514;2023-01-10T04:48:21;1.4666666666666666;0.8833333333333333;
46381;PMS5003;66809;52.974;-2.514;2023-01-10T04:50:21;1.4666666666666666;0.8666666666666667;
46381;PMS5003;66809;52.974;-2.514;2023-01-10T04:52:21;1.4833333333333334;0.8666666666666667;
46381;PMS5003;66809;52.974;-2.514;2023-01-10T04:54:21;1.5333333333333334;0.9166666666666666;
46381;PMS5003;66809;52.974;-2.514;2023-01-10T04:56:22;1.4833333333333334;0.8833333333333333;
46381;PMS5003;66809;52.974;-2.514;2023-01-10T04:58:21;1.4666666666666666;0.8833333333333333;
46381;PMS5003;66809;52.974;-2.514;2023-01-10T05:00:22;1.4666666666666666;0.8833333333333333;
46381;PMS5003;66809;52.974;-2.514;2023-01-10T05:02:21;1.55;0.9;
46381;PMS5003;66809;52.974;-2.514;2023-01-10T05:04:21;1.5666666666666667;0.9333333333333333;
46381;PMS5003;66809;52.974;-2.514;2023-01-10T05:06:22;1.5833333333333333;0.9666666666666667;
46381;PMS5003;66809;52.974;-2.514;2023-01-10T05:08:21;1.6;0.9666666666666667;
46381;PMS5003;66809;52.974;-2.514;2023-01-10T05:10:21;1.55;0.9166666666666666;
46381;PMS5003;66809;52.974;-2.514;2023-01-10T05:12:21;1.5;0.8666666666666667;
46381;PMS5003;66809;52.974;-2.514;2023-01-10T05:14:21;1.4333333333333333;0.85;
46381;PMS5003;66809;52.974;-2.514;2023-01-10T05:16:21;1.4166666666666667;0.85;
46381;PMS5003;66809;52.974;-2.514;2023-01-10T05:18:21;1.35;0.8166666666666667;
46381;PMS5003;66809;52.974;-2.514;2023-01-10T05:20:21;1.35;0.8333333333333334;
46381;PMS5003;66809;52.974;-2.514;2023-01-10T05:22:21;1.25;0.8166666666666667;
46381;PMS5003;66809;52.974;-2.514;2023-01-10T05:24:21;1.2166666666666666;0.8;
46381;PMS5003;66809;52.974;-2.514;2023-01-10T05:26:22;1.2666666666666666;0.8;
46381;PMS5003;66809;52.974;-2.514;2023-01-10T05:28:22;1.3;0.8166666666666667;
46381;PMS5003;66809;52.974;-2.514;2023-01-10T05:30:21;1.2666666666666666;0.8;
46381;PMS5003;66809;52.974;-2.514;2023-01-10T05:32:21;1.3;0.8166666666666667;
46381;PMS5003;66809;52.974;-2.514;2023-01-10T05:34:21;1.3;0.7833333333333333;
46381;PMS5003;66809;52.974;-2.514;2023-01-10T05:36:21;1.3333333333333333;0.8;
46381;PMS5003;66809;52.974;-2.514;2023-01-10T05:38:22;1.3;0.8;
46381;PMS5003;66809;52.974;-2.514;2023-01-10T05:40:22;1.2833333333333334;0.7666666666666667;
46381;PMS5003;66809;52.974;-2.514;2023-01-10T05:42:22;1.3;0.7333333333333333;
46381;PMS5003;66809;52.974;-2.514;2023-01-10T05:44:22;1.2833333333333334;0.75;
46381;PMS5003;66809;52.974;-2.514;2023-01-10T05:46:21;1.2833333333333334;0.7833333333333333;
46381;PMS5003;66809;52.974;-2.514;2023-01-10T05:48:21;1.2833333333333334;0.7833333333333333;
46381;PMS5003;66809;52.974;-2.514;2023-01-10T05:50:26;1.25;0.7833333333333333;
46381;PMS5003;66809;52.974;-2.514;2023-01-10T05:52:21;1.2333333333333334;0.75;
46381;PMS5003;66809;52.974;-2.514;2023-01-10T05:54:21;1.2;0.7166666666666667;
46381;PMS5003;66809;52.974;-2.514;2023-01-10T05:56:21;1.2833333333333334;0.7166666666666667;
46381;PMS5003;66809;52.974;-2.514;2023-01-10T05:58:22;1.3;0.75;
46381;PMS5003;66809;52.974;-2.514;2023-01-10T06:00:22;1.2833333333333334;0.7333333333333333;
46381;PMS5003;66809;52.974;-2.514;2023-01-10T06:02:21;1.2333333333333334;0.7166666666666667;
46381;PMS5003;66809;52.974;-2.514;2023-01-10T06:04:21;1.2333333333333334;0.6833333333333333;
46381;PMS5003;66809;52.974;-2.514;2023-01-10T06:06:27;1.2333333333333334;0.6666666666666666;
46381;PMS5003;66809;52.974;-2.514;2023-01-10T06:08:21;1.2333333333333334;0.6833333333333333;
46381;PMS5003;66809;52.974;-2.514;2023-01-10T06:10:22;1.3166666666666667;0.6833333333333333;
46381;PMS5003;66809;52.974;-2.514;2023-01-10T06:12:27;1.3333333333333333;0.7;
46381;PMS5003;66809;52.974;-2.514;2023-01-10T06:14:21;1.3;0.6666666666666666;
46381;PMS5003;66809;52.974;-2.514;2023-01-10T06:16:21;1.25;0.6166666666666667;
46381;PMS5003;66809;52.974;-2.514;2023-01-10T06:18:21;1.2666666666666666;0.6333333333333333;
46381;PMS5003;66809;52.974;-2.514;2023-01-10T06:20:21;1.25;0.6166666666666667;
46381;PMS5003;66809;52.974;-2.514;2023-01-10T06:22:21;1.2833333333333334;0.65;
46381;PMS5003;66809;52.974;-2.514;2023-01-10T06:24:21;1.25;0.6666666666666666;
46381;PMS5003;66809;52.974;-2.514;2023-01-10T06:26:21;1.2333333333333334;0.6666666666666666;
46381;PMS5003;66809;52.974;-2.514;2023-01-10T06:28:26;1.2666666666666666;0.6666666666666666;
46381;PMS5003;66809;52.974;-2.514;2023-01-10T06:30:21;1.3;0.6666666666666666;
46381;PMS5003;66809;52.974;-2.514;2023-01-10T06:32:26;1.3333333333333333;0.6833333333333333;
46381;PMS5003;66809;52.974;-2.514;2023-01-10T06:34:22;1.3833333333333333;0.7333333333333333;
46381;PMS5003;66809;52.974;-2.514;2023-01-10T06:36:21;1.3333333333333333;0.7;
46381;PMS5003;66809;52.974;-2.514;2023-01-10T06:38:21;1.3166666666666667;0.7;
46381;PMS5003;66809;52.974;-2.514;2023-01-10T06:40:21;1.2833333333333334;0.7;
46381;PMS5003;66809;52.974;-2.514;2023-01-10T06:42:21;1.3;0.7333333333333333;
46381;PMS5003;66809;52.974;-2.514;2023-01-10T06:44:21;1.4;0.7833333333333333;
46381;PMS5003;66809;52.974;-2.514;2023-01-10T06:46:28;1.3833333333333333;0.7666666666666667;
46381;PMS5003;66809;52.974;-2.514;2023-01-10T06:48:21;1.4166666666666667;0.8;
46381;PMS5003;66809;52.974;-2.514;2023-01-10T06:50:22;1.45;0.8;
46381;PMS5003;66809;52.974;-2.514;2023-01-10T06:52:21;1.4333333333333333;0.8166666666666667;
46381;PMS5003;66809;52.974;-2.514;2023-01-10T06:54:21;1.45;0.8333333333333334;
46381;PMS5003;66809;52.974;-2.514;2023-01-10T06:56:21;1.3833333333333333;0.85;
46381;PMS5003;66809;52.974;-2.514;2023-01-10T06:58:21;1.4;0.8666666666666667;
46381;PMS5003;66809;52.974;-2.514;2023-01-10T07:00:22;1.3833333333333333;0.8833333333333333;
46381;PMS5003;66809;52.974;-2.514;2023-01-10T07:02:21;1.3833333333333333;0.9166666666666666;
46381;PMS5003;66809;52.974;-2.514;2023-01-10T07:04:21;1.3833333333333333;0.9166666666666666;
46381;PMS5003;66809;52.974;-2.514;2023-01-10T07:06:21;1.4166666666666667;0.9166666666666666;
46381;PMS5003;66809;52.974;-2.514;2023-01-10T07:08:22;1.4833333333333334;0.9333333333333333;
46381;PMS5003;66809;52.974;-2.514;2023-01-10T07:10:21;1.45;0.9833333333333333;
46381;PMS5003;66809;52.974;-2.514;2023-01-10T07:12:21;1.4333333333333333;0.9666666666666667;
46381;PMS5003;66809;52.974;-2.514;2023-01-10T07:14:21;1.4666666666666666;0.9666666666666667;
46381;PMS5003;66809;52.974;-2.514;2023-01-10T07:16:21;1.5;1.0;
46381;PMS5003;66809;52.974;-2.514;2023-01-10T07:18:22;1.5666666666666667;1.0333333333333334;
46381;PMS5003;66809;52.974;-2.514;2023-01-10T07:20:21;1.55;1.0166666666666666;
46381;PMS5003;66809;52.974;-2.514;2023-01-10T07:22:21;1.5666666666666667;0.9666666666666667;
46381;PMS5003;66809;52.974;-2.514;2023-01-10T07:24:21;1.6166666666666667;0.9833333333333333;
46381;PMS5003;66809;52.974;-2.514;2023-01-10T07:26:21;1.5833333333333333;0.9833333333333333;
46381;PMS5003;66809;52.974;-2.514;2023-01-10T07:28:22;1.5166666666666666;0.9666666666666667;
46381;PMS5003;66809;52.974;-2.514;2023-01-10T07:30:22;1.55;1.0;
46381;PMS5003;66809;52.974;-2.514;2023-01-10T07:32:21;1.5166666666666666;0.9666666666666667;
46381;PMS5003;66809;52.974;-2.514;2023-01-10T07:34:22;1.5;0.9333333333333333;
46381;PMS5003;66809;52.974;-2.514;2023-01-10T07:36:21;1.55;0.9833333333333333;
46381;PMS5003;66809;52.974;-2.514;2023-01-10T07:38:21;1.5666666666666667;0.9833333333333333;
46381;PMS5003;66809;52.974;-2.514;2023-01-10T07:40:21;1.6166666666666667;1.0166666666666666;
46381;PMS5003;66809;52.974;-2.514;2023-01-10T07:42:21;1.6;1.0333333333333334;
46381;PMS5003;66809;52.974;-2.514;2023-01-10T07:44:21;1.5333333333333334;1.0;
46381;PMS5003;66809;52.974;-2.514;2023-01-10T07:46:21;1.55;1.0;
46381;PMS5003;66809;52.974;-2.514;2023-01-10T07:48:21;1.5;0.9666666666666667;
46381;PMS5003;66809;52.974;-2.514;2023-01-10T07:50:21;1.55;1.0;
46381;PMS5003;66809;52.974;-2.514;2023-01-10T07:52:22;1.55;1.0;
46381;PMS5003;66809;52.974;-2.514;2023-01-10T07:54:21;1.5333333333333334;0.95;
46381;PMS5003;66809;52.974;-2.514;2023-01-10T07:56:21;1.5833333333333333;0.9666666666666667;
46381;PMS5003;66809;52.974;-2.514;2023-01-10T07:58:21;1.55;0.9333333333333333;
46381;PMS5003;66809;52.974;-2.514;2023-01-10T08:00:22;1.5333333333333334;0.9166666666666666;
46381;PMS5003;66809;52.974;-2.514;2023-01-10T08:02:21;1.55;0.9;
46381;PMS5003;66809;52.974;-2.514;2023-01-10T08:04:21;1.5666666666666667;0.9333333333333333;
46381;PMS5003;66809;52.974;-2.514;2023-01-10T08:06:21;1.55;0.9333333333333333;
46381;PMS5003;66809;52.974;-2.514;2023-01-10T08:08:22;1.4833333333333334;0.9166666666666666;
46381;PMS5003;66809;52.974;-2.514;2023-01-10T08:10:21;1.5;0.9;
46381;PMS5003;66809;52.974;-2.514;2023-01-10T08:12:21;1.55;0.9333333333333333;
46381;PMS5003;66809;52.974;-2.514;2023-01-10T08:14:21;1.55;0.9666666666666667;
46381;PMS5003;66809;52.974;-2.514;2023-01-10T08:16:21;1.5833333333333333;0.9666666666666667;
46381;PMS5003;66809;52.974;-2.514;2023-01-10T08:18:21;1.5333333333333334;0.9166666666666666;
46381;PMS5003;66809;52.974;-2.514;2023-01-10T08:20:21;1.5333333333333334;0.9166666666666666;
46381;PMS5003;66809;52.974;-2.514;2023-01-10T08:22:21;1.4666666666666666;0.9166666666666666;
46381;PMS5003;66809;52.974;-2.514;2023-01-10T08:24:21;1.4666666666666666;0.9166666666666666;
46381;PMS5003;66809;52.974;-2.514;2023-01-10T08:26:21;1.5166666666666666;0.9333333333333333;
46381;PMS5003;66809;52.974;-2.514;2023-01-10T08:28:21;1.5333333333333334;0.95;
46381;PMS5003;66809;52.974;-2.514;2023-01-10T08:30:21;1.4833333333333334;0.9333333333333333;
46381;PMS5003;66809;52.974;-2.514;2023-01-10T08:32:21;1.4333333333333333;0.9166666666666666;
46381;PMS5003;66809;52.974;-2.514;2023-01-10T08:34:21;1.3833333333333333;0.9166666666666666;
46381;PMS5003;66809;52.974;-2.514;2023-01-10T08:36:22;1.4166666666666667;0.9166666666666666;
46381;PMS5003;66809;52.974;-2.514;2023-01-10T08:38:21;1.4;0.9166666666666666;
46381;PMS5003;66809;52.974;-2.514;2023-01-10T08:40:21;1.3333333333333333;0.8666666666666667;
46381;PMS5003;66809;52.974;-2.514;2023-01-10T08:42:21;1.35;0.85;
46381;PMS5003;66809;52.974;-2.514;2023-01-10T08:44:21;1.3166666666666667;0.8333333333333334;
46381;PMS5003;66809;52.974;-2.514;2023-01-10T08:46:21;1.3166666666666667;0.85;
46381;PMS5003;66809;52.974;-2.514;2023-01-10T08:48:21;1.3;0.8333333333333334;
46381;PMS5003;66809;52.974;-2.514;2023-01-10T08:50:21;1.2166666666666666;0.8;
46381;PMS5003;66809;52.974;-2.514;2023-01-10T08:52:22;1.3;0.8333333333333334;
46381;PMS5003;66809;52.974;-2.514;2023-01-10T08:54:21;1.3;0.8666666666666667;
46381;PMS5003;66809;52.974;-2.514;2023-01-10T08:56:22;1.25;0.8333333333333334;
46381;PMS5003;66809;52.974;-2.514;2023-01-10T08:58:22;1.2666666666666666;0.8166666666666667;
46381;PMS5003;66809;52.974;-2.514;2023-01-10T09:00:23;1.3;0.85;
46381;PMS5003;66809;52.974;-2.514;2023-01-10T09:02:21;1.2666666666666666;0.85;
46381;PMS5003;66809;52.974;-2.514;2023-01-10T09:04:21;1.2166666666666666;0.8;
46381;PMS5003;66809;52.974;-2.514;2023-01-10T09:06:21;1.2;0.8166666666666667;
46381;PMS5003;66809;52.974;-2.514;2023-01-10T09:08:22;1.2166666666666666;0.8;
46381;PMS5003;66809;52.974;-2.514;2023-01-10T09:10:21;1.1833333333333333;0.8;
46381;PMS5003;66809;52.974;-2.514;2023-01-10T09:12:21;1.1666666666666667;0.8;
46381;PMS5003;66809;52.974;-2.514;2023-01-10T09:14:21;1.2;0.8333333333333334;
46381;PMS5003;66809;52.974;-2.514;2023-01-10T09:16:22;1.1666666666666667;0.8;
46381;PMS5003;66809;52.974;-2.514;2023-01-10T09:18:21;1.1833333333333333;0.8333333333333334;
46381;PMS5003;66809;52.974;-2.514;2023-01-10T09:20:22;1.2333333333333334;0.85;
46381;PMS5003;66809;52.974;-2.514;2023-01-10T09:22:21;1.25;0.8666666666666667;
46381;PMS5003;66809;52.974;-2.514;2023-01-10T09:24:22;1.2666666666666666;0.8833333333333333;
46381;PMS5003;66809;52.974;-2.514;2023-01-10T09:26:21;1.2666666666666666;0.8833333333333333;
46381;PMS5003;66809;52.974;-2.514;2023-01-10T09:28:21;1.2666666666666666;0.8666666666666667;
46381;PMS5003;66809;52.974;-2.514;2023-01-10T09:30:21;1.2333333333333334;0.8333333333333334;
46381;PMS5003;66809;52.974;-2.514;2023-01-10T09:32:21;1.3166666666666667;0.8666666666666667;
46381;PMS5003;66809;52.974;-2.514;2023-01-10T09:34:21;1.35;0.8666666666666667;
46381;PMS5003;66809;52.974;-2.514;2023-01-10T09:36:21;1.3333333333333333;0.85;
46381;PMS5003;66809;52.974;-2.514;2023-01-10T09:38:21;1.3;0.8166666666666667;